createdAt,value
2023-08-28T00:00:44.265Z,99294.81
2023-08-28T00:03:11.518Z,99286.75
2023-08-28T00:05:38.407Z,99286.00
2023-08-28T00:08:09.385Z,99274.84
2023-08-28T00:10:36.858Z,99284.88
2023-08-28T00:13:04.512Z,99283.81
2023-08-28T00:15:31.808Z,99280.09
2023-08-28T00:17:58.774Z,99281.72
2023-08-28T00:20:25.710Z,99282.81
2023-08-28T00:22:52.585Z,99277.00
2023-08-28T00:25:19.593Z,99277.44
2023-08-28T00:27:46.751Z,99276.00
2023-08-28T00:30:13.868Z,99279.28
2023-08-28T00:32:40.814Z,99274.50
2023-08-28T00:35:08.405Z,99272.63
2023-08-28T00:37:35.745Z,99282.22
2023-08-28T00:40:04.379Z,99271.81
2023-08-28T00:42:31.375Z,99270.34
2023-08-28T00:44:58.392Z,99267.03
2023-08-28T00:47:26.050Z,99258.72
2023-08-28T00:49:53.355Z,99250.28
2023-08-28T00:52:20.440Z,99255.22
2023-08-28T00:54:48.709Z,99246.31
2023-08-28T00:57:18.446Z,99254.84
2023-08-28T00:59:47.202Z,99246.75
2023-08-28T01:02:14.177Z,99245.25
2023-08-28T01:04:41.057Z,99245.47
2023-08-28T01:07:24.451Z,99234.09
2023-08-28T01:10:16.863Z,99238.00
2023-08-28T01:13:11.732Z,99233.47
2023-08-28T01:15:40.124Z,99228.09
2023-08-28T01:18:09.205Z,99235.09
2023-08-28T01:20:39.092Z,99240.31
2023-08-28T01:23:06.266Z,99244.25
2023-08-28T01:25:33.749Z,99227.88
2023-08-28T01:28:00.798Z,99236.59
2023-08-28T01:30:28.334Z,99233.88
2023-08-28T01:32:56.137Z,99241.78
2023-08-28T01:35:27.416Z,99235.97
2023-08-28T01:38:15.961Z,99235.53
2023-08-28T01:41:12.492Z,99237.59
2023-08-28T01:43:43.441Z,99238.84
2023-08-28T01:46:11.725Z,99235.72
2023-08-28T01:48:44.928Z,99237.19
2023-08-28T01:51:11.957Z,99226.63
2023-08-28T01:53:40.114Z,99228.06
2023-08-28T01:56:10.007Z,99232.22
2023-08-28T01:58:39.526Z,99238.00
2023-08-28T02:01:06.509Z,99245.06
2023-08-28T02:03:34.289Z,99250.44
2023-08-28T02:06:01.539Z,99247.97
2023-08-28T02:08:28.555Z,99244.88
2023-08-28T02:10:55.413Z,99247.97
2023-08-28T02:13:23.030Z,99247.56
2023-08-28T02:15:50.054Z,99234.69
2023-08-28T02:18:16.931Z,99237.16
2023-08-28T02:20:46.477Z,99230.31
2023-08-28T02:23:13.526Z,99225.72
2023-08-28T02:25:48.585Z,99228.03
2023-08-28T02:28:19.363Z,99224.06
2023-08-28T02:30:47.088Z,99221.38
2023-08-28T02:33:14.489Z,99217.88
2023-08-28T02:35:43.750Z,99225.13
2023-08-28T02:38:11.896Z,99218.19
2023-08-28T02:40:39.671Z,99213.88
2023-08-28T02:43:07.470Z,99211.41
2023-08-28T02:45:36.274Z,99217.84
2023-08-28T02:48:04.592Z,99224.91
2023-08-28T02:50:36.517Z,99223.25
2023-08-28T02:53:04.740Z,99234.69
2023-08-28T02:55:42.455Z,99227.63
2023-08-28T02:58:11.535Z,99240.47
2023-08-28T03:00:39.348Z,99242.09
2023-08-28T03:03:07.012Z,99251.47
2023-08-28T03:05:34.528Z,99245.84
2023-08-28T03:08:01.435Z,99248.13
2023-08-28T03:10:31.093Z,99245.44
2023-08-28T03:12:58.407Z,99247.69
2023-08-28T03:15:25.393Z,99249.13
2023-08-28T03:17:52.379Z,99251.22
2023-08-28T03:20:19.307Z,99251.84
2023-08-28T03:22:47.459Z,99248.22
2023-08-28T03:25:15.063Z,99243.72
2023-08-28T03:27:42.101Z,99234.44
2023-08-28T03:30:10.410Z,99238.66
2023-08-28T03:32:37.612Z,99243.25
2023-08-28T03:35:04.759Z,99241.00
2023-08-28T03:37:31.592Z,99243.59
2023-08-28T03:39:58.645Z,99244.28
2023-08-28T03:42:25.618Z,99245.84
2023-08-28T03:44:52.620Z,99248.03
2023-08-28T03:47:19.509Z,99258.47
2023-08-28T03:49:46.457Z,99261.50
2023-08-28T03:52:13.361Z,99264.03
2023-08-28T03:54:40.815Z,99271.97
2023-08-28T03:57:07.673Z,99272.63
2023-08-28T03:59:34.659Z,99267.44
2023-08-28T04:02:03.489Z,99274.50
2023-08-28T04:04:31.248Z,99283.25
2023-08-28T04:07:02.934Z,99264.84
2023-08-28T04:09:32.767Z,99269.13
2023-08-28T04:11:59.742Z,99263.00
2023-08-28T04:14:26.687Z,99261.34
2023-08-28T04:16:54.884Z,99257.06
2023-08-28T04:19:21.819Z,99255.16
2023-08-28T04:21:51.634Z,99261.03
2023-08-28T04:24:19.488Z,99262.66
2023-08-28T04:26:49.333Z,99270.97
2023-08-28T04:29:22.071Z,99272.44
2023-08-28T04:31:49.275Z,99263.22
2023-08-28T04:34:19.356Z,99267.63
2023-08-28T04:36:46.259Z,99265.78
2023-08-28T04:39:13.155Z,99269.47
2023-08-28T04:41:41.356Z,99265.03
2023-08-28T04:44:08.308Z,99271.78
2023-08-28T04:46:35.310Z,99273.94
2023-08-28T04:49:02.189Z,99279.78
2023-08-28T04:51:30.816Z,99282.16
2023-08-28T04:53:57.701Z,99288.41
2023-08-28T04:56:24.754Z,99287.16
2023-08-28T04:58:52.785Z,99295.28
2023-08-28T05:01:19.635Z,99292.97
2023-08-28T05:03:46.601Z,99289.66
2023-08-28T05:06:13.504Z,99294.47
2023-08-28T05:08:40.442Z,99302.16
2023-08-28T05:11:10.199Z,99308.78
2023-08-28T05:13:37.103Z,99297.38
2023-08-28T05:16:04.189Z,99300.69
2023-08-28T05:18:31.163Z,99301.06
2023-08-28T05:20:58.063Z,99306.56
2023-08-28T05:23:27.811Z,99304.53
2023-08-28T05:25:55.943Z,99306.97
2023-08-28T05:28:23.212Z,99306.34
2023-08-28T05:30:50.353Z,99309.34
2023-08-28T05:33:17.304Z,99308.97
2023-08-28T05:35:44.440Z,99303.59
2023-08-28T05:38:12.071Z,99300.06
2023-08-28T05:40:39.033Z,99301.94
2023-08-28T05:43:06.928Z,99298.53
2023-08-28T05:45:34.247Z,99297.59
2023-08-28T05:48:01.360Z,99297.69
2023-08-28T05:50:28.265Z,99292.41
2023-08-28T05:52:55.199Z,99294.91
2023-08-28T05:55:22.115Z,99298.03
2023-08-28T05:57:49.498Z,99300.09
2023-08-28T06:00:16.779Z,99301.91
2023-08-28T06:02:44.392Z,99303.41
2023-08-28T06:05:11.451Z,99302.63
2023-08-28T06:07:38.613Z,99305.72
2023-08-28T06:10:06.879Z,99303.03
2023-08-28T06:12:35.369Z,99298.56
2023-08-28T06:15:02.200Z,99300.09
2023-08-28T06:17:29.231Z,99302.00
2023-08-28T06:19:56.555Z,99299.31
2023-08-28T06:22:23.371Z,99295.78
2023-08-28T06:24:54.130Z,99289.69
2023-08-28T06:27:21.188Z,99287.69
2023-08-28T06:29:48.165Z,99276.59
2023-08-28T06:32:16.206Z,99280.59
2023-08-28T06:34:43.176Z,99287.22
2023-08-28T06:37:10.134Z,99292.75
2023-08-28T06:39:37.155Z,99294.91
2023-08-28T06:42:04.401Z,99293.22
2023-08-28T06:44:32.214Z,99290.38
2023-08-28T06:46:59.153Z,99294.28
2023-08-28T06:49:26.010Z,99299.59
2023-08-28T06:51:52.980Z,99293.09
2023-08-28T06:54:19.802Z,99293.50
2023-08-28T06:56:46.629Z,99282.56
2023-08-28T06:59:13.600Z,99281.50
2023-08-28T07:01:40.408Z,99277.97
2023-08-28T07:04:07.364Z,99277.38
2023-08-28T07:06:35.422Z,99275.94
2023-08-28T07:09:02.272Z,99283.09
2023-08-28T07:11:29.386Z,99283.34
2023-08-28T07:13:56.349Z,99283.81
2023-08-28T07:16:23.286Z,99290.31
2023-08-28T07:18:50.265Z,99294.59
2023-08-28T07:21:17.301Z,99292.41
2023-08-28T07:23:46.561Z,99301.00
2023-08-28T07:26:17.101Z,99297.44
2023-08-28T07:28:47.804Z,99296.22
2023-08-28T07:31:14.777Z,99303.44
2023-08-28T07:33:41.929Z,99295.31
2023-08-28T07:36:09.108Z,99297.34
2023-08-28T07:38:36.268Z,99293.81
2023-08-28T07:41:03.214Z,99293.03
2023-08-28T07:43:30.214Z,99290.09
2023-08-28T07:45:57.136Z,99295.13
2023-08-28T07:48:24.983Z,99290.41
2023-08-28T07:50:51.962Z,99285.44
2023-08-28T07:53:18.825Z,99289.75
2023-08-28T07:55:45.672Z,99274.94
2023-08-28T07:58:12.579Z,99282.84
2023-08-28T08:00:41.511Z,99274.44
2023-08-28T08:03:08.520Z,99278.97
2023-08-28T08:05:35.587Z,99272.50
2023-08-28T08:08:02.468Z,99276.63
2023-08-28T08:10:29.296Z,99279.56
2023-08-28T08:12:56.331Z,99278.34
2023-08-28T08:15:23.275Z,99284.28
2023-08-28T08:17:50.334Z,99274.53
2023-08-28T08:20:17.340Z,99275.88
2023-08-28T08:22:44.706Z,99271.63
2023-08-28T08:25:12.096Z,99268.84
2023-08-28T08:27:42.399Z,99267.84
2023-08-28T08:30:09.953Z,99255.91
2023-08-28T08:32:36.947Z,99252.09
2023-08-28T08:35:06.838Z,99261.69
2023-08-28T08:37:34.410Z,99250.91
2023-08-28T08:40:01.458Z,99251.38
2023-08-28T08:42:29.197Z,99250.94
2023-08-28T08:44:56.185Z,99252.31
2023-08-28T08:47:24.570Z,99248.59
2023-08-28T08:49:56.547Z,99245.66
2023-08-28T08:52:24.237Z,99243.03
2023-08-28T08:54:57.901Z,99250.09
2023-08-28T08:57:40.391Z,99245.72
2023-08-28T09:00:18.785Z,99241.47
2023-08-28T09:02:47.266Z,99234.59
2023-08-28T09:05:16.215Z,99233.72
2023-08-28T09:07:44.707Z,99228.38
2023-08-28T09:10:13.475Z,99237.03
2023-08-28T09:12:40.464Z,99223.44
2023-08-28T09:15:08.064Z,99223.19
2023-08-28T09:17:40.294Z,99215.53
2023-08-28T09:20:25.253Z,99207.91
2023-08-28T09:22:55.093Z,99213.31
2023-08-28T09:25:24.015Z,99212.44
2023-08-28T09:27:53.736Z,99213.25
2023-08-28T09:30:27.995Z,99207.25
2023-08-28T09:32:55.237Z,99211.56
2023-08-28T09:35:22.584Z,99209.53
2023-08-28T09:38:00.426Z,99202.47
2023-08-28T09:40:38.913Z,99201.81
2023-08-28T09:43:14.135Z,99202.44
2023-08-28T09:45:43.107Z,99194.53
2023-08-28T09:48:11.939Z,99201.78
2023-08-28T09:50:43.525Z,99195.09
2023-08-28T09:53:12.713Z,99197.41
2023-08-28T09:55:53.698Z,99191.97
2023-08-28T09:58:24.838Z,99191.44
2023-08-28T10:00:53.311Z,99185.94
2023-08-28T10:03:24.591Z,99184.63
2023-08-28T10:05:52.404Z,99178.06
2023-08-28T10:08:20.200Z,99184.88
2023-08-28T10:10:53.032Z,99191.44
2023-08-28T10:13:23.953Z,99185.19
2023-08-28T10:16:11.811Z,99162.69
2023-08-28T10:19:08.305Z,99172.28
2023-08-28T10:21:36.015Z,99166.72
2023-08-28T10:24:03.313Z,99164.75
2023-08-28T10:26:30.806Z,99161.09
2023-08-28T10:28:58.902Z,99163.66
2023-08-28T10:31:26.829Z,99164.59
2023-08-28T10:33:54.341Z,99159.41
2023-08-28T10:36:47.250Z,99147.75
2023-08-28T10:39:09.856Z,99166.69
2023-08-28T10:41:38.569Z,99155.47
2023-08-28T10:44:06.555Z,99156.88
2023-08-28T10:46:34.662Z,99152.69
2023-08-28T10:49:05.381Z,99151.59
2023-08-28T10:51:34.290Z,99155.75
2023-08-28T10:54:09.327Z,99138.53
2023-08-28T10:56:38.667Z,99155.47
2023-08-28T10:59:20.829Z,99147.91
2023-08-28T11:01:56.581Z,99137.41
2023-08-28T11:04:25.370Z,99138.50
2023-08-28T11:06:52.745Z,99141.22
2023-08-28T11:09:31.608Z,99129.09
2023-08-28T11:11:58.499Z,99131.31
2023-08-28T11:17:09.210Z,99127.16
2023-08-28T11:19:54.637Z,99122.25
2023-08-28T11:22:41.887Z,99110.66
2023-08-28T11:25:14.007Z,99109.44
2023-08-28T11:27:49.659Z,99108.69
2023-08-28T11:30:21.472Z,99109.47
2023-08-28T11:32:51.321Z,99102.69
2023-08-28T11:35:20.255Z,99099.56
2023-08-28T11:37:49.706Z,99092.50
2023-08-28T11:40:24.414Z,99084.94
2023-08-28T11:43:05.082Z,99085.09
2023-08-28T11:45:32.393Z,99079.69
2023-08-28T11:48:05.145Z,99064.94
2023-08-28T11:50:32.632Z,99057.47
2023-08-28T11:52:59.569Z,99064.19
2023-08-28T11:55:27.107Z,99059.56
2023-08-28T11:57:54.429Z,99058.09
2023-08-28T12:00:22.397Z,99061.72
2023-08-28T12:02:50.157Z,99055.41
2023-08-28T12:05:20.280Z,99056.28
2023-08-28T12:07:48.477Z,99063.66
2023-08-28T12:10:17.272Z,99053.34
2023-08-28T12:12:44.444Z,99045.41
2023-08-28T12:15:12.123Z,99041.94
2023-08-28T12:17:39.768Z,99042.31
2023-08-28T12:20:12.419Z,99049.78
2023-08-28T12:22:48.359Z,99041.97
2023-08-28T12:25:15.340Z,99040.63
2023-08-28T12:27:42.255Z,99035.59
2023-08-28T12:30:19.259Z,99033.84
2023-08-28T12:32:54.881Z,99029.59
2023-08-28T12:35:23.932Z,99038.47
2023-08-28T12:37:54.710Z,99032.84
2023-08-28T12:40:21.638Z,99029.47
2023-08-28T12:42:48.865Z,99025.41
2023-08-28T12:45:15.809Z,99024.25
2023-08-28T12:47:43.080Z,99025.06
2023-08-28T12:50:11.413Z,99014.00
2023-08-28T12:52:38.494Z,99016.66
2023-08-28T12:55:06.243Z,99018.94
2023-08-28T12:57:33.551Z,99020.91
2023-08-28T13:00:00.427Z,99002.94
2023-08-28T13:02:28.001Z,99011.84
2023-08-28T13:04:55.256Z,99006.38
2023-08-28T13:07:22.214Z,99007.03
2023-08-28T13:09:49.282Z,99009.19
2023-08-28T13:12:16.256Z,98998.47
2023-08-28T13:14:43.174Z,99001.47
2023-08-28T13:17:10.024Z,99005.38
2023-08-28T13:19:36.973Z,99010.13
2023-08-28T13:22:04.469Z,99012.75
2023-08-28T13:24:42.183Z,99005.59
2023-08-28T13:27:11.198Z,98994.09
2023-08-28T13:29:38.034Z,98998.13
2023-08-28T13:32:06.650Z,99007.66
2023-08-28T13:34:33.740Z,98997.97
2023-08-28T13:37:06.540Z,98993.72
2023-08-28T13:39:34.263Z,98983.06
2023-08-28T13:42:01.374Z,98971.56
2023-08-28T13:44:31.077Z,98984.75
2023-08-28T13:46:58.543Z,98968.31
2023-08-28T13:49:25.428Z,98967.44
2023-08-28T13:51:52.318Z,98969.44
2023-08-28T13:54:19.892Z,98968.63
2023-08-28T13:56:46.907Z,98969.53
2023-08-28T13:59:13.804Z,98973.66
2023-08-28T14:01:42.311Z,98977.59
2023-08-28T14:04:09.765Z,98964.63
2023-08-28T14:06:36.950Z,98964.81
2023-08-28T14:09:05.251Z,98968.38
2023-08-28T14:11:32.191Z,98954.81
2023-08-28T14:13:59.082Z,98961.28
2023-08-28T14:16:26.077Z,98958.47
2023-08-28T14:18:52.918Z,98954.72
2023-08-28T14:21:19.794Z,98954.84
2023-08-28T14:23:46.722Z,98957.09
2023-08-28T14:26:13.656Z,98956.50
2023-08-28T14:28:40.627Z,98955.44
2023-08-28T14:31:07.607Z,98957.38
2023-08-28T14:33:34.557Z,98955.69
2023-08-28T14:36:01.447Z,98951.47
2023-08-28T14:38:32.442Z,98948.28
2023-08-28T14:40:59.803Z,98950.53
2023-08-28T14:43:26.976Z,98951.78
2023-08-28T14:45:53.872Z,98941.19
2023-08-28T14:48:21.108Z,98943.28
2023-08-28T14:50:48.109Z,98944.16
2023-08-28T14:53:15.097Z,98946.53
2023-08-28T14:55:42.094Z,98951.09
2023-08-28T14:58:09.033Z,98945.25
2023-08-28T15:00:36.391Z,98940.78
2023-08-28T15:03:04.487Z,98935.94
2023-08-28T15:05:32.940Z,98937.50
2023-08-28T15:08:11.674Z,98953.78
2023-08-28T15:10:45.288Z,98953.94
2023-08-28T15:13:12.354Z,98948.34
2023-08-28T15:15:46.268Z,98953.00
2023-08-28T15:18:13.583Z,98949.94
2023-08-28T15:20:41.324Z,98956.88
2023-08-28T15:23:08.585Z,98958.38
2023-08-28T15:25:35.634Z,98956.53
2023-08-28T15:28:02.622Z,98954.63
2023-08-28T15:30:31.089Z,98951.06
2023-08-28T15:32:58.347Z,98956.47
2023-08-28T15:35:25.266Z,98951.25
2023-08-28T15:37:52.204Z,98953.97
2023-08-28T15:40:19.238Z,98953.75
2023-08-28T15:42:47.197Z,98948.06
2023-08-28T15:45:14.212Z,98945.91
2023-08-28T15:47:42.100Z,98944.31
2023-08-28T15:50:10.776Z,98949.28
2023-08-28T15:52:37.645Z,98945.44
2023-08-28T15:55:05.212Z,98948.00
2023-08-28T15:57:32.164Z,98941.75
2023-08-28T15:59:59.004Z,98943.16
2023-08-28T16:02:25.863Z,98953.00
2023-08-28T16:04:52.796Z,98952.72
2023-08-28T16:07:19.675Z,98953.00
2023-08-28T16:09:46.720Z,98963.19
2023-08-28T16:12:13.644Z,98967.59
2023-08-28T16:14:40.603Z,98961.56
2023-08-28T16:17:09.062Z,98962.13
2023-08-28T16:19:35.962Z,98955.53
2023-08-28T16:22:02.819Z,98956.38
2023-08-28T16:24:30.053Z,98945.69
2023-08-28T16:26:56.905Z,98953.91
2023-08-28T16:29:23.862Z,98953.38
2023-08-28T16:31:50.690Z,98960.72
2023-08-28T16:34:17.568Z,98956.63
2023-08-28T16:36:44.532Z,98958.75
2023-08-28T16:39:11.357Z,98958.19
2023-08-28T16:41:38.268Z,98949.69
2023-08-28T16:44:05.477Z,98959.50
2023-08-28T16:46:32.333Z,98962.78
2023-08-28T16:48:59.371Z,98961.38
2023-08-28T16:51:26.220Z,98966.03
2023-08-28T16:53:53.723Z,98966.16
2023-08-28T16:56:21.286Z,98975.00
2023-08-28T16:58:48.300Z,98979.66
2023-08-28T17:01:15.093Z,98990.47
2023-08-28T17:03:42.073Z,98983.66
2023-08-28T17:06:08.998Z,98991.53
2023-08-28T17:08:35.867Z,98994.94
2023-08-28T17:11:02.837Z,98994.91
2023-08-28T17:13:29.800Z,98996.50
2023-08-28T17:15:56.725Z,98998.16
2023-08-28T17:18:23.731Z,99002.69
2023-08-28T17:20:50.611Z,98999.75
2023-08-28T17:23:18.194Z,98991.94
2023-08-28T17:25:45.144Z,98994.22
2023-08-28T17:28:13.096Z,98992.25
2023-08-28T17:30:40.192Z,98996.91
2023-08-28T17:33:07.660Z,98988.78
2023-08-28T17:35:35.145Z,99000.34
2023-08-28T17:38:02.047Z,98997.16
2023-08-28T17:40:29.022Z,98998.25
2023-08-28T17:42:55.927Z,98999.06
2023-08-28T17:45:22.783Z,98998.59
2023-08-28T17:47:49.915Z,99008.19
2023-08-28T17:50:17.242Z,99010.72
2023-08-28T17:52:44.157Z,99016.59
2023-08-28T17:55:11.610Z,99011.69
2023-08-28T17:57:38.729Z,99017.28
2023-08-28T18:00:06.880Z,99024.25
2023-08-28T18:02:58.932Z,99023.88
2023-08-28T18:05:27.505Z,99026.69
2023-08-28T18:07:54.401Z,99019.41
2023-08-28T18:10:21.261Z,99026.38
2023-08-28T18:12:48.113Z,99028.75
2023-08-28T18:15:15.096Z,99028.03
2023-08-28T18:17:42.265Z,99026.50
2023-08-28T18:20:09.744Z,99025.91
2023-08-28T18:22:36.602Z,99024.72
2023-08-28T18:25:03.771Z,99025.84
2023-08-28T18:27:30.601Z,99024.28
2023-08-28T18:29:57.501Z,99028.41
2023-08-28T18:32:24.469Z,99026.75
2023-08-28T18:34:54.762Z,99037.78
2023-08-28T18:37:21.720Z,99040.28
2023-08-28T18:39:48.747Z,99042.31
2023-08-28T18:42:15.665Z,99036.97
2023-08-28T18:44:42.572Z,99031.50
2023-08-28T18:47:09.544Z,99031.91
2023-08-28T18:49:36.413Z,99026.38
2023-08-28T18:52:04.225Z,99028.69
2023-08-28T18:54:31.923Z,99023.81
2023-08-28T18:56:58.749Z,99028.34
2023-08-28T18:59:25.699Z,99039.47
2023-08-28T19:01:52.578Z,99030.66
2023-08-28T19:04:22.149Z,99037.31
2023-08-28T19:06:49.041Z,99038.13
2023-08-28T19:09:16.038Z,99034.97
2023-08-28T19:11:42.924Z,99038.69
2023-08-28T19:14:09.918Z,99044.63
2023-08-28T19:16:38.256Z,99041.41
2023-08-28T19:19:05.924Z,99043.06
2023-08-28T19:21:32.805Z,99036.00
2023-08-28T19:23:59.695Z,99040.59
2023-08-28T19:26:26.623Z,99038.84
2023-08-28T19:28:53.666Z,99046.00
2023-08-28T19:31:20.655Z,99050.59
2023-08-28T19:33:47.583Z,99046.84
2023-08-28T19:36:14.404Z,99045.06
2023-08-28T19:38:41.278Z,99056.34
2023-08-28T19:41:08.192Z,99059.31
2023-08-28T19:43:35.249Z,99061.84
2023-08-28T19:46:02.985Z,99061.25
2023-08-28T19:48:33.260Z,99059.47
2023-08-28T19:51:00.388Z,99058.06
2023-08-28T19:53:27.427Z,99056.91
2023-08-28T19:55:54.371Z,99056.03
2023-08-28T19:58:21.439Z,99056.53
2023-08-28T20:00:48.323Z,99050.91
2023-08-28T20:03:15.451Z,99045.38
2023-08-28T20:05:42.496Z,99050.47
2023-08-28T20:08:09.580Z,99055.34
2023-08-28T20:10:36.662Z,99049.66
2023-08-28T20:13:03.720Z,99052.78
2023-08-28T20:15:30.691Z,99055.16
2023-08-28T20:17:57.724Z,99064.56
2023-08-28T20:20:24.623Z,99071.28
2023-08-28T20:22:51.542Z,99069.59
2023-08-28T20:25:18.653Z,99073.22
2023-08-28T20:27:45.660Z,99064.38
2023-08-28T20:30:12.937Z,99065.34
2023-08-28T20:32:39.819Z,99065.22
2023-08-28T20:35:07.291Z,99060.59
2023-08-28T20:37:34.555Z,99062.88
2023-08-28T20:40:01.516Z,99058.94
2023-08-28T20:42:28.373Z,99061.69
2023-08-28T20:44:58.236Z,99062.59
2023-08-28T20:47:27.006Z,99062.13
2023-08-28T20:49:54.578Z,99061.66
2023-08-28T20:52:21.557Z,99058.50
2023-08-28T20:54:48.679Z,99055.63
2023-08-28T20:57:15.564Z,99057.81
2023-08-28T20:59:42.408Z,99056.16
2023-08-28T21:02:09.370Z,99058.25
2023-08-28T21:04:36.584Z,99053.75
2023-08-28T21:07:04.291Z,99063.53
2023-08-28T21:09:31.184Z,99058.97
2023-08-28T21:11:58.937Z,99063.31
2023-08-28T21:14:25.780Z,99056.44
2023-08-28T21:16:52.767Z,99060.94
2023-08-28T21:19:26.876Z,99056.56
2023-08-28T21:21:53.750Z,99061.66
2023-08-28T21:24:20.658Z,99066.84
2023-08-28T21:26:47.523Z,99065.63
2023-08-28T21:29:14.322Z,99079.06
2023-08-28T21:31:41.169Z,99072.47
2023-08-28T21:34:08.085Z,99073.97
2023-08-28T21:36:34.994Z,99075.50
2023-08-28T21:39:01.903Z,99065.66
2023-08-28T21:41:29.037Z,99073.63
2023-08-28T21:43:55.870Z,99079.50
2023-08-28T21:46:22.874Z,99077.13
2023-08-28T21:48:49.649Z,99076.38
2023-08-28T21:51:35.169Z,99073.84
2023-08-28T21:54:20.641Z,99064.22
2023-08-28T21:57:06.154Z,99059.03
2023-08-28T21:59:51.648Z,99067.34
2023-08-28T22:02:37.113Z,99059.97
2023-08-28T22:05:24.176Z,99062.63
2023-08-28T22:07:51.102Z,99057.78
2023-08-28T22:10:20.890Z,99060.47
2023-08-28T22:13:08.884Z,99054.25
2023-08-28T22:15:38.957Z,99051.50
2023-08-28T22:18:06.276Z,99047.75
2023-08-28T22:20:33.759Z,99045.41
2023-08-28T22:23:00.841Z,99046.00
2023-08-28T22:25:27.964Z,99047.72
2023-08-28T22:27:54.843Z,99043.38
2023-08-28T22:30:21.850Z,99048.81
2023-08-28T22:32:51.395Z,99042.69
2023-08-28T22:35:19.014Z,99043.25
2023-08-28T22:37:45.823Z,99050.38
2023-08-28T22:40:12.844Z,99056.81
2023-08-28T22:42:39.787Z,99048.13
2023-08-28T22:45:06.957Z,99047.06
2023-08-28T22:47:35.589Z,99040.28
2023-08-28T22:50:02.584Z,99034.59
2023-08-28T22:52:29.438Z,99037.22
2023-08-28T22:54:56.452Z,99041.34
2023-08-28T22:57:23.416Z,99035.06
2023-08-28T22:59:50.430Z,99028.72
2023-08-28T23:02:17.441Z,99031.88
2023-08-28T23:04:44.351Z,99027.44
2023-08-28T23:07:11.253Z,99026.25
2023-08-28T23:09:38.118Z,99036.28
2023-08-28T23:12:05.255Z,99027.88
2023-08-28T23:14:32.298Z,99039.38
2023-08-28T23:16:59.235Z,99029.41
2023-08-28T23:19:26.203Z,99033.16
2023-08-28T23:21:53.085Z,99020.69
2023-08-28T23:24:19.992Z,99016.00
2023-08-28T23:26:46.859Z,99019.25
2023-08-28T23:29:15.448Z,99011.31
2023-08-28T23:31:42.429Z,99015.22
2023-08-28T23:34:09.263Z,99013.09
2023-08-28T23:36:36.322Z,99012.91
2023-08-28T23:39:08.323Z,99009.53
2023-08-28T23:41:35.837Z,99020.16
2023-08-28T23:44:02.964Z,99016.63
2023-08-28T23:46:29.865Z,99014.94
2023-08-28T23:48:56.840Z,99017.75
2023-08-28T23:51:23.918Z,99027.69
2023-08-28T23:53:50.853Z,99017.75
2023-08-28T23:56:17.944Z,99014.44
2023-08-28T23:58:44.790Z,99020.34
